Time;durP1;ratioP1;P1;durP2;ratioP2;P2;SDS_P1;SDS_P2;PMS_P1;PMS_P2;Temp;Humidity;BMP_temperature;BMP_pressure;BME280_temperature;BME280_humidity;BME280_pressure;Samples;Min_cycle;Max_cycle;Signal;HPM_P1;HPM_P2
2022/04/23 00:01:48;;;;;;;5.28;4.30;;;13.80;70.40;;;;;;6122898;23;20387;-79
2022/04/23 00:04:15;;;;;;;5.90;4.00;;;13.70;71.00;;;;;;6145209;23;20852;-79
2022/04/23 00:06:43;;;;;;;7.45;3.00;;;13.70;71.50;;;;;;6120670;23;20375;-80
2022/04/23 00:09:11;;;;;;;3.17;2.70;;;13.60;71.90;;;;;;6122241;23;20431;-79
2022/04/23 00:11:38;;;;;;;5.63;5.00;;;13.60;71.50;;;;;;6119909;23;20434;-77
2022/04/23 00:14:07;;;;;;;5.65;5.15;;;13.60;71.90;;;;;;6123184;23;20943;-79
2022/04/23 00:16:34;;;;;;;4.65;3.92;;;13.60;72.40;;;;;;6122236;23;20447;-77
2022/04/23 00:19:01;;;;;;;3.38;2.78;;;13.60;73.10;;;;;;6122482;23;20463;-79
2022/04/23 00:21:29;;;;;;;5.70;3.15;;;13.60;73.00;;;;;;6119871;23;20384;-79
2022/04/23 00:23:55;;;;;;;4.68;3.30;;;13.60;74.40;;;;;;6120938;23;20419;-79
2022/04/23 00:26:23;;;;;;;3.97;2.63;;;13.50;75.30;;;;;;6119646;23;20403;-79
2022/04/23 00:28:50;;;;;;;3.80;3.10;;;13.40;75.10;;;;;;6110188;23;20927;-79
2022/04/23 00:31:17;;;;;;;4.35;2.75;;;13.40;77.20;;;;;;6121267;23;20386;-79
2022/04/23 00:33:44;;;;;;;4.88;2.85;;;13.40;76.70;;;;;;6114873;23;20464;-80
2022/04/23 00:36:11;;;;;;;6.05;3.50;;;13.40;76.90;;;;;;6114388;23;20391;-79
2022/04/23 00:38:42;;;;;;;3.78;2.60;;;13.30;78.20;;;;;;6119813;23;20384;-78
2022/04/23 00:41:43;;;;;;;4.15;3.33;;;13.20;79.40;;;;;;6122122;23;20387;-77
2022/04/23 00:44:02;;;;;;;6.45;3.50;;;13.20;79.10;;;;;;6122073;23;21216;-78
2022/04/23 00:46:29;;;;;;;5.05;3.70;;;13.20;79.40;;;;;;6121793;23;20454;-79
2022/04/23 00:48:58;;;;;;;6.70;4.03;;;13.20;78.40;;;;;;6121373;23;20838;-78
2022/04/23 00:51:29;;;;;;;5.47;4.80;;;13.10;78.10;;;;;;6124167;23;20402;-80
2022/04/23 00:53:57;;;;;;;5.55;5.03;;;13.00;78.10;;;;;;6120493;23;20387;-79
2022/04/23 00:56:24;;;;;;;6.15;5.55;;;12.90;78.70;;;;;;6120558;23;20385;-79
2022/04/23 00:58:51;;;;;;;6.45;5.72;;;12.90;78.60;;;;;;6122020;23;20974;-80
2022/04/23 01:01:23;;;;;;;5.65;5.15;;;12.90;78.80;;;;;;6121174;23;20387;-79
2022/04/23 01:03:52;;;;;;;6.37;5.77;;;12.90;78.70;;;;;;6121605;23;20738;-80
2022/04/23 01:06:20;;;;;;;7.80;6.28;;;12.90;79.70;;;;;;6123393;23;20415;-79
2022/04/23 01:08:47;;;;;;;6.43;5.83;;;12.80;78.90;;;;;;6122778;23;20439;-78
2022/04/23 01:11:14;;;;;;;7.18;6.25;;;12.80;79.60;;;;;;6123199;23;20504;-79
2022/04/23 01:13:43;;;;;;;6.78;5.85;;;12.80;79.50;;;;;;6120305;23;20411;-79
2022/04/23 01:16:10;;;;;;;6.97;6.10;;;12.70;78.80;;;;;;6122901;23;20379;-79
2022/04/23 01:18:41;;;;;;;6.32;5.57;;;12.60;79.50;;;;;;6121123;23;20379;-79
2022/04/23 01:21:13;;;;;;;7.35;5.35;;;12.50;78.70;;;;;;6121169;23;20430;-79
2022/04/23 01:23:42;;;;;;;7.97;5.40;;;12.50;79.30;;;;;;6122046;23;20454;-79
2022/04/23 01:26:10;;;;;;;4.97;4.43;;;12.50;78.50;;;;;;6122004;23;20430;-79
2022/04/23 01:28:38;;;;;;;5.80;4.57;;;12.50;79.50;;;;;;6123397;23;20391;-79
2022/04/23 01:31:05;;;;;;;6.20;4.85;;;12.60;79.10;;;;;;6112852;23;20380;-80
2022/04/23 01:33:36;;;;;;;5.53;4.80;;;12.60;79.40;;;;;;6123249;23;20451;-78
2022/04/23 01:36:03;;;;;;;8.10;5.10;;;12.60;79.10;;;;;;6125651;23;20423;-78
2022/04/23 01:38:30;;;;;;;5.68;4.60;;;12.60;79.60;;;;;;6124893;23;20403;-79
2022/04/23 01:40:57;;;;;;;5.97;4.53;;;12.50;79.70;;;;;;6123795;23;20380;-79
2022/04/23 01:43:24;;;;;;;6.03;4.57;;;12.50;80.00;;;;;;6125678;23;20447;-79
2022/04/23 01:45:51;;;;;;;6.53;4.28;;;12.40;80.20;;;;;;6123397;23;20387;-78
2022/04/23 01:48:18;;;;;;;6.85;4.95;;;12.40;80.20;;;;;;6122924;23;20383;-78
2022/04/23 01:50:45;;;;;;;7.55;4.82;;;12.30;80.30;;;;;;6123132;23;20388;-77
2022/04/23 01:53:12;;;;;;;9.27;5.10;;;12.30;80.50;;;;;;6125019;23;20367;-79
2022/04/23 01:55:39;;;;;;;5.72;4.45;;;12.30;80.70;;;;;;6120756;23;20375;-79
2022/04/23 01:58:06;;;;;;;6.55;4.78;;;12.30;80.70;;;;;;6121498;23;20368;-77
2022/04/23 02:00:33;;;;;;;5.60;4.10;;;12.30;81.00;;;;;;6123088;23;20422;-79
2022/04/23 02:03:00;;;;;;;6.53;4.80;;;12.30;80.70;;;;;;6120358;23;20447;-79
2022/04/23 02:05:27;;;;;;;6.32;4.28;;;12.30;80.70;;;;;;6123916;23;20383;-80
2022/04/23 02:07:54;;;;;;;6.15;4.32;;;12.30;80.60;;;;;;6124257;23;20380;-79
2022/04/23 02:10:21;;;;;;;7.07;4.32;;;12.30;81.20;;;;;;6124502;23;20426;-80
2022/04/23 02:12:48;;;;;;;7.70;4.82;;;12.30;80.70;;;;;;6122414;23;20431;-78
2022/04/23 02:15:16;;;;;;;9.07;4.88;;;12.40;80.80;;;;;;6122240;23;20375;-79
2022/04/23 02:17:45;;;;;;;5.05;3.75;;;12.30;80.70;;;;;;6121280;23;20380;-78
2022/04/23 02:20:15;;;;;;;6.95;4.18;;;12.40;80.50;;;;;;6121953;23;20867;-79
2022/04/23 02:22:44;;;;;;;5.93;4.10;;;12.40;80.50;;;;;;6122787;23;20403;-79
2022/04/23 02:25:12;;;;;;;6.13;4.07;;;12.40;80.70;;;;;;6122138;23;20750;-79
2022/04/23 02:27:49;;;;;;;9.80;4.50;;;12.40;80.30;;;;;;6121387;23;20419;-78
2022/04/23 02:30:21;;;;;;;5.85;4.20;;;12.40;80.10;;;;;;6120755;23;20438;-78
2022/04/23 02:32:49;;;;;;;8.57;4.35;;;12.40;79.80;;;;;;6122609;23;20383;-79
2022/04/23 02:35:18;;;;;;;6.50;3.85;;;12.50;79.90;;;;;;6121928;23;20368;-80
2022/04/23 02:37:53;;;;;;;6.13;3.80;;;12.40;79.70;;;;;;6123549;23;20388;-78
2022/04/23 02:40:20;;;;;;;5.67;3.70;;;12.50;79.60;;;;;;6122010;23;20440;-77
2022/04/23 02:42:48;;;;;;;5.65;3.65;;;12.50;79.70;;;;;;6123533;23;20411;-80
2022/04/23 02:45:15;;;;;;;6.25;3.58;;;12.50;78.80;;;;;;6097413;23;20395;-78
2022/04/23 02:47:46;;;;;;;5.28;3.90;;;12.50;79.20;;;;;;6123017;23;20391;-80
2022/04/23 02:50:15;;;;;;;6.25;4.00;;;12.50;78.80;;;;;;6121098;23;20923;-78
2022/04/23 02:52:45;;;;;;;6.15;3.60;;;12.50;78.50;;;;;;6122366;23;20387;-79
2022/04/23 02:55:12;;;;;;;5.25;3.25;;;12.50;78.30;;;;;;6122512;23;20415;-79
2022/04/23 02:57:42;;;;;;;4.75;3.58;;;12.50;78.70;;;;;;6124088;23;20717;-80
2022/04/23 03:00:10;;;;;;;5.18;3.42;;;12.40;78.90;;;;;;6122103;23;20414;-79
2022/04/23 03:02:38;;;;;;;6.82;3.72;;;12.50;78.30;;;;;;6122275;23;20748;-80
2022/04/23 03:05:08;;;;;;;4.57;3.28;;;12.50;78.30;;;;;;6145183;23;20456;-78
2022/04/23 03:07:35;;;;;;;4.82;3.58;;;12.50;78.40;;;;;;6110080;23;20384;-79
2022/04/23 03:10:06;;;;;;;5.47;3.65;;;12.50;78.40;;;;;;6121870;23;20384;-78
2022/04/23 03:12:33;;;;;;;5.82;4.30;;;12.50;78.90;;;;;;6121933;23;20380;-78
2022/04/23 03:15:00;;;;;;;6.28;4.50;;;12.40;78.60;;;;;;6120052;23;20939;-79
2022/04/23 03:17:27;;;;;;;8.20;5.13;;;12.40;79.30;;;;;;6121232;23;20384;-80
2022/04/23 03:19:53;;;;;;;5.20;4.40;;;12.40;80.00;;;;;;6122779;23;20380;-79
2022/04/23 03:22:21;;;;;;;6.30;4.75;;;12.30;79.40;;;;;;6121143;23;20423;-79
2022/04/23 03:24:48;;;;;;;5.10;4.18;;;12.30;80.50;;;;;;6121424;23;20947;-79
2022/04/23 03:27:15;;;;;;;6.25;4.88;;;12.30;80.20;;;;;;6121050;23;20383;-78
2022/04/23 03:29:42;;;;;;;7.13;5.40;;;12.30;80.00;;;;;;6121246;23;20840;-78
2022/04/23 03:32:10;;;;;;;8.27;5.10;;;12.20;81.10;;;;;;6120762;23;20454;-80
2022/04/23 03:34:38;;;;;;;7.78;4.85;;;12.10;81.90;;;;;;6123844;23;20431;-79
2022/04/23 03:37:06;;;;;;;9.45;5.40;;;12.10;83.10;;;;;;6122195;23;20387;-80
2022/04/23 03:39:33;;;;;;;6.85;5.22;;;12.00;83.90;;;;;;6121882;23;20379;-79
2022/04/23 03:42:01;;;;;;;6.37;5.40;;;12.00;85.40;;;;;;6120150;23;20438;-80
2022/04/23 03:44:30;;;;;;;7.22;5.13;;;11.90;86.00;;;;;;6122505;23;20440;-78
2022/04/23 03:46:57;;;;;;;7.28;5.50;;;11.90;86.10;;;;;;6121087;23;20450;-81
2022/04/23 03:49:25;;;;;;;6.82;4.50;;;11.80;87.20;;;;;;6120961;23;20372;-81
2022/04/23 03:51:52;;;;;;;6.47;5.25;;;11.70;87.00;;;;;;6121183;23;20380;-81
2022/04/23 03:54:19;;;;;;;6.20;5.10;;;11.70;87.90;;;;;;6121548;23;20384;-82
2022/04/23 03:56:46;;;;;;;6.53;4.65;;;11.80;87.60;;;;;;6123599;23;20387;-81
2022/04/23 03:59:15;;;;;;;7.05;5.85;;;11.90;86.90;;;;;;6123964;23;20386;-81
2022/04/23 04:01:42;;;;;;;2.63;2.33;;;11.90;87.60;;;;;;6122223;23;20583;-82
2022/04/23 04:04:09;;;;;;;5.63;3.63;;;11.90;86.20;;;;;;6120870;23;20868;-81
2022/04/23 04:06:36;;;;;;;7.97;5.27;;;11.80;87.80;;;;;;6123680;23;20372;-78
2022/04/23 04:09:02;;;;;;;7.67;5.93;;;11.80;88.20;;;;;;6120182;23;20390;-81
2022/04/23 04:12:01;;;;;;;7.93;6.38;;;11.80;88.80;;;;;;6121073;23;20375;-80
2022/04/23 04:14:16;;;;;;;7.40;6.67;;;11.80;89.40;;;;;;6122236;23;20450;-79
2022/04/23 04:16:43;;;;;;;7.73;6.47;;;11.80;89.80;;;;;;6120360;23;20640;-79
2022/04/23 04:19:10;;;;;;;9.23;6.95;;;11.70;89.70;;;;;;6120968;23;20396;-80
2022/04/23 04:21:38;;;;;;;8.32;7.10;;;11.50;90.40;;;;;;6122021;23;20434;-80
2022/04/23 04:24:06;;;;;;;8.48;6.25;;;11.50;90.60;;;;;;6121722;23;20383;-80
2022/04/23 04:26:32;;;;;;;11.18;8.23;;;11.50;90.40;;;;;;6121455;23;20372;-79
2022/04/23 04:28:59;;;;;;;8.75;7.65;;;11.60;90.50;;;;;;6121678;23;20682;-80
2022/04/23 04:34:12;;;;;;;5.45;4.80;;;11.40;90.90;;;;;;6122808;23;20430;-79
2022/04/23 04:36:39;;;;;;;9.20;7.45;;;11.40;90.60;;;;;;6121647;23;20371;-80
2022/04/23 04:39:06;;;;;;;9.00;7.10;;;11.40;91.00;;;;;;6121102;23;20499;-79
2022/04/23 04:41:35;;;;;;;9.63;7.18;;;11.50;91.00;;;;;;6121243;23;20379;-82
2022/04/23 04:44:03;;;;;;;10.68;7.82;;;11.50;90.90;;;;;;6123015;23;20391;-80
2022/04/23 04:46:31;;;;;;;9.73;8.15;;;11.50;91.20;;;;;;6122504;23;20372;-80
2022/04/23 04:48:59;;;;;;;9.60;8.33;;;11.50;91.40;;;;;;6121829;23;20480;-79
2022/04/23 04:51:25;;;;;;;8.77;7.75;;;11.50;91.50;;;;;;6121710;23;20431;-80
2022/04/23 04:53:53;;;;;;;9.13;7.28;;;11.50;92.20;;;;;;6122559;23;20379;-81
2022/04/23 04:56:20;;;;;;;6.55;5.93;;;11.50;91.80;;;;;;6121146;23;20438;-82
2022/04/23 04:58:47;;;;;;;5.57;4.93;;;11.50;91.60;;;;;;6122960;23;20427;-82
2022/04/23 05:01:15;;;;;;;6.95;5.32;;;11.50;91.60;;;;;;6122306;23;20376;-82
2022/04/23 05:03:43;;;;;;;5.75;5.03;;;11.50;91.70;;;;;;6123977;23;20407;-82
2022/04/23 05:06:10;;;;;;;6.93;4.60;;;11.50;91.60;;;;;;6123613;23;20387;-81
2022/04/23 05:08:38;;;;;;;4.72;4.32;;;11.60;91.50;;;;;;6126833;23;20371;-80
2022/04/23 05:11:05;;;;;;;4.07;3.78;;;11.50;91.40;;;;;;6126659;23;20407;-80
2022/04/23 05:13:33;;;;;;;3.53;2.55;;;11.50;91.40;;;;;;6124758;23;20371;-82
2022/04/23 05:16:00;;;;;;;2.95;2.70;;;11.50;91.20;;;;;;6124043;23;20936;-80
2022/04/23 05:18:27;;;;;;;4.35;2.65;;;11.40;91.30;;;;;;6124412;23;20376;-81
2022/04/23 05:20:54;;;;;;;3.65;3.15;;;11.40;91.50;;;;;;6125543;23;20382;-82
2022/04/23 05:23:21;;;;;;;3.17;2.92;;;11.30;91.60;;;;;;6124527;23;20411;-82
2022/04/23 05:25:48;;;;;;;3.45;3.15;;;11.30;91.20;;;;;;6126301;23;20379;-80
2022/04/23 05:28:15;;;;;;;17.55;15.18;;;11.20;91.10;;;;;;6130210;23;20383;-80
2022/04/23 05:30:43;;;;;;;6.17;5.63;;;11.20;91.60;;;;;;6133309;23;20387;-81
2022/04/23 05:33:11;;;;;;;6.05;5.45;;;11.20;92.00;;;;;;6125339;23;20387;-81
2022/04/23 05:35:38;;;;;;;22.92;20.15;;;11.20;92.10;;;;;;6127291;23;20871;-79
2022/04/23 05:38:06;;;;;;;8.82;7.93;;;11.10;91.80;;;;;;6130904;23;20438;-82
2022/04/23 05:40:33;;;;;;;4.10;3.70;;;11.10;92.10;;;;;;6116972;23;20427;-81
2022/04/23 05:43:00;;;;;;;5.15;4.40;;;11.20;92.30;;;;;;6127261;23;20415;-80
2022/04/23 05:45:28;;;;;;;4.65;4.25;;;11.20;92.30;;;;;;6122427;23;20454;-82
2022/04/23 05:47:57;;;;;;;3.88;3.58;;;11.30;92.10;;;;;;6130408;23;20434;-81
2022/04/23 05:50:25;;;;;;;2.90;2.70;;;11.30;91.90;;;;;;6129431;23;20384;-82
2022/04/23 05:52:52;;;;;;;2.92;1.95;;;11.20;91.70;;;;;;6127549;23;20387;-82
2022/04/23 05:55:19;;;;;;;2.55;2.17;;;11.20;91.40;;;;;;6136885;23;20380;-81
2022/04/23 05:57:47;;;;;;;2.80;2.60;;;11.20;91.50;;;;;;6135564;23;20415;-82
2022/04/23 06:00:14;;;;;;;9.20;8.40;;;11.20;92.00;;;;;;6131037;23;20387;-80
2022/04/23 06:02:42;;;;;;;5.10;4.37;;;11.10;91.90;;;;;;6124311;23;20745;-82
2022/04/23 06:05:10;;;;;;;3.80;3.40;;;11.20;92.10;;;;;;6153903;23;20384;-81
2022/04/23 06:07:38;;;;;;;4.38;3.97;;;11.10;91.50;;;;;;6126700;23;20399;-82
2022/04/23 06:10:05;;;;;;;4.20;3.78;;;11.10;91.40;;;;;;6125636;23;20380;-81
2022/04/23 06:12:34;;;;;;;3.80;3.50;;;11.20;91.50;;;;;;6127267;23;20383;-82
2022/04/23 06:15:01;;;;;;;3.00;2.70;;;11.20;91.30;;;;;;6125103;23;20380;-81
2022/04/23 06:17:29;;;;;;;2.80;2.42;;;11.20;91.20;;;;;;6126621;23;20384;-82
2022/04/23 06:19:56;;;;;;;3.45;3.15;;;11.20;91.30;;;;;;6124933;23;20709;-82
2022/04/23 06:22:23;;;;;;;7.72;4.47;;;11.30;91.70;;;;;;6123799;23;20431;-82
2022/04/23 06:24:51;;;;;;;6.75;5.32;;;11.30;92.00;;;;;;6125302;23;20443;-81
2022/04/23 06:27:19;;;;;;;6.75;6.10;;;11.20;92.60;;;;;;6123817;23;20408;-81
2022/04/23 06:29:45;;;;;;;5.65;5.15;;;11.20;92.80;;;;;;6125879;23;20380;-82
2022/04/23 06:32:12;;;;;;;5.65;5.13;;;11.10;93.20;;;;;;6128282;23;20757;-81
2022/04/23 06:34:40;;;;;;;5.90;5.30;;;11.00;93.50;;;;;;6127338;23;20823;-82
2022/04/23 06:37:08;;;;;;;5.88;5.35;;;11.00;93.90;;;;;;6133507;23;20876;-81
2022/04/23 06:39:35;;;;;;;6.00;5.35;;;11.00;93.50;;;;;;6123849;23;20839;-82
2022/04/23 06:42:03;;;;;;;6.10;5.50;;;11.00;93.40;;;;;;6127300;23;20691;-82
2022/04/23 06:44:30;;;;;;;5.93;5.25;;;11.00;93.50;;;;;;6124664;23;20383;-82
2022/04/23 06:46:57;;;;;;;5.63;5.03;;;11.00;93.70;;;;;;6123035;23;20379;-81
2022/04/23 06:49:26;;;;;;;5.93;5.37;;;11.10;93.50;;;;;;6122293;23;20450;-81
2022/04/23 06:51:53;;;;;;;5.00;4.57;;;11.10;93.40;;;;;;6128077;23;20874;-81
2022/04/23 06:54:21;;;;;;;4.88;4.47;;;11.10;93.40;;;;;;6125112;23;20871;-81
2022/04/23 06:56:49;;;;;;;4.18;3.70;;;11.10;93.20;;;;;;6126309;23;20399;-84
2022/04/23 06:59:15;;;;;;;4.40;4.00;;;11.10;93.10;;;;;;6124665;23;20371;-81
2022/04/23 07:01:42;;;;;;;3.03;2.70;;;11.20;92.90;;;;;;6149947;23;21224;-81
2022/04/23 07:04:10;;;;;;;2.50;2.30;;;11.20;92.70;;;;;;6125222;23;20363;-81
2022/04/23 07:06:37;;;;;;;2.67;2.33;;;11.20;92.60;;;;;;6131056;23;20919;-80
2022/04/23 07:09:05;;;;;;;2.55;2.00;;;11.20;92.70;;;;;;6122187;23;20376;-82
2022/04/23 07:11:33;;;;;;;1.95;1.70;;;11.20;92.80;;;;;;6122533;23;20383;-83
2022/04/23 07:14:00;;;;;;;2.53;2.10;;;11.20;92.50;;;;;;6126494;23;20375;-83
2022/04/23 07:16:27;;;;;;;2.38;2.00;;;11.20;92.60;;;;;;6125769;23;20376;-82
2022/04/23 07:18:54;;;;;;;2.08;1.90;;;11.10;92.80;;;;;;6122142;23;20399;-81
2022/04/23 07:21:22;;;;;;;2.73;1.90;;;11.10;93.30;;;;;;6120277;23;20870;-82
2022/04/23 07:24:05;;;;;;;3.15;2.20;;;11.10;93.20;;;;;;6124319;23;20376;-81
2022/04/23 07:26:35;;;;;;;2.80;2.22;;;11.00;93.50;;;;;;6128926;23;20411;-81
2022/04/23 07:29:08;;;;;;;3.08;1.88;;;11.00;93.50;;;;;;6124996;23;20382;-80
2022/04/23 07:31:36;;;;;;;2.08;1.48;;;11.00;93.30;;;;;;6127583;23;20387;-82
2022/04/23 07:39:36;;;;;;;2.47;1.80;;;11.10;93.50;;;;;;6125689;23;20407;-82
2022/04/23 07:42:05;;;;;;;3.97;2.75;;;11.00;93.50;;;;;;6125487;23;20379;-82
2022/04/23 07:44:33;;;;;;;2.88;2.67;;;11.10;93.80;;;;;;6125315;23;20384;-82
2022/04/23 07:47:00;;;;;;;1.88;1.77;;;11.20;93.40;;;;;;6122054;23;20694;-81
2022/04/23 07:49:27;;;;;;;3.08;2.88;;;11.20;93.10;;;;;;6128846;23;20375;-81
2022/04/23 07:51:54;;;;;;;2.78;2.00;;;11.30;93.20;;;;;;6126919;23;20369;-82
2022/04/23 07:54:21;;;;;;;2.72;2.10;;;11.40;92.90;;;;;;6130181;23;20355;-82
2022/04/23 07:56:48;;;;;;;2.42;1.77;;;11.40;92.90;;;;;;6121549;23;20757;-81
2022/04/23 07:59:15;;;;;;;3.05;2.00;;;11.40;93.00;;;;;;6123569;23;20418;-82
2022/04/23 08:01:42;;;;;;;1.67;1.53;;;11.40;93.10;;;;;;6126532;23;20375;-82
2022/04/23 08:04:09;;;;;;;2.47;1.58;;;11.30;93.00;;;;;;6152853;23;20540;-80
2022/04/23 08:06:36;;;;;;;2.55;2.20;;;11.40;93.00;;;;;;6126964;23;20384;-82
2022/04/23 08:09:03;;;;;;;4.57;4.18;;;11.30;92.90;;;;;;6131198;23;20428;-82
2022/04/23 08:11:30;;;;;;;6.22;5.57;;;11.30;93.20;;;;;;6124704;23;20376;-82
2022/04/23 08:13:57;;;;;;;3.53;3.20;;;11.30;93.20;;;;;;6122071;23;20429;-83
2022/04/23 08:16:26;;;;;;;3.80;3.50;;;11.30;93.10;;;;;;6125286;23;20387;-81
2022/04/23 08:18:54;;;;;;;1.95;1.75;;;11.40;93.40;;;;;;6127286;23;20459;-82
2022/04/23 08:21:22;;;;;;;2.38;1.45;;;11.40;93.30;;;;;;6127632;23;20868;-82
2022/04/23 08:23:49;;;;;;;2.05;1.58;;;11.40;92.90;;;;;;6130573;23;20375;-82
2022/04/23 08:26:16;;;;;;;1.55;1.40;;;11.40;93.20;;;;;;6123476;23;20387;-81
2022/04/23 08:31:29;;;;;;;2.78;1.40;;;11.50;92.80;;;;;;6129258;23;20386;-82
2022/04/23 08:33:59;;;;;;;2.40;1.70;;;11.60;92.60;;;;;;6121523;23;20827;-82
2022/04/23 08:36:38;;;;;;;2.25;1.50;;;11.50;92.70;;;;;;6123564;23;20915;-82
2022/04/23 08:39:07;;;;;;;1.70;1.05;;;11.50;92.40;;;;;;6123795;23;20442;-81
2022/04/23 08:41:35;;;;;;;1.75;1.58;;;11.40;92.30;;;;;;6102296;23;20375;-80
2022/04/23 08:44:07;;;;;;;2.15;1.48;;;11.30;92.60;;;;;;6122359;23;20466;-82
2022/04/23 08:46:36;;;;;;;1.92;1.55;;;11.40;92.90;;;;;;6126328;23;20434;-81
2022/04/23 08:49:09;;;;;;;1.45;1.20;;;11.40;92.80;;;;;;6122215;23;20377;-80
2022/04/23 08:51:38;;;;;;;1.65;1.10;;;11.40;92.80;;;;;;6134942;23;20386;-82
2022/04/23 08:54:10;;;;;;;1.60;0.85;;;11.30;92.60;;;;;;6126246;23;20364;-82
2022/04/23 08:56:39;;;;;;;1.00;0.70;;;11.30;92.20;;;;;;6128243;23;20431;-82
2022/04/23 08:59:07;;;;;;;0.73;0.70;;;11.30;91.70;;;;;;6130493;23;20378;-82
2022/04/23 09:01:36;;;;;;;4.40;2.73;;;11.30;91.70;;;;;;6134081;23;20434;-82
2022/04/23 09:04:06;;;;;;;9.65;5.22;;;11.40;91.70;;;;;;6132071;23;20364;-82
2022/04/23 09:06:35;;;;;;;1.30;0.85;;;11.50;91.90;;;;;;6155266;23;20394;-82
2022/04/23 09:09:07;;;;;;;1.00;0.80;;;11.60;91.30;;;;;;6113710;23;20766;-82
2022/04/23 09:11:35;;;;;;;1.90;0.80;;;11.50;91.40;;;;;;6124069;23;20890;-80
2022/04/23 09:14:06;;;;;;;1.30;0.60;;;11.40;91.80;;;;;;6128292;23;20444;-80
2022/04/23 10:24:14;;;;;;;4.63;3.77;;;12.80;90.40;;;;;;6068805;23;20400;-82
2022/04/23 10:26:48;;;;;;;3.10;2.67;;;12.80;90.80;;;;;;6155392;23;20378;-82
2022/04/23 10:29:20;;;;;;;2.50;2.08;;;12.80;89.30;;;;;;6160826;23;20440;-82
2022/04/23 10:32:13;;;;;;;3.58;3.15;;;12.80;87.20;;;;;;6151366;23;20374;-80
2022/04/23 10:34:42;;;;;;;3.97;3.47;;;12.90;87.90;;;;;;6152563;23;20378;-82
2022/04/23 10:37:20;;;;;;;5.45;3.38;;;12.90;88.60;;;;;;6154990;23;20394;-81
2022/04/23 10:39:52;;;;;;;4.65;4.00;;;13.00;88.50;;;;;;6151056;23;20449;-82
2022/04/23 10:42:22;;;;;;;4.88;4.15;;;13.10;90.70;;;;;;6156025;23;20374;-82
2022/04/23 10:44:50;;;;;;;5.72;4.22;;;13.00;90.00;;;;;;6152489;23;20763;-82
2022/04/23 10:47:32;;;;;;;4.80;4.00;;;13.00;88.00;;;;;;6154058;23;20377;-82
2022/04/23 10:50:19;;;;;;;5.55;4.65;;;13.10;88.00;;;;;;6153765;23;20382;-82
2022/04/23 10:52:49;;;;;;;6.13;5.22;;;13.10;89.10;;;;;;6154503;23;20792;-82
2022/04/23 10:55:17;;;;;;;5.60;5.05;;;13.10;88.40;;;;;;6152624;23;20921;-82
2022/04/23 10:57:50;;;;;;;6.80;5.57;;;13.10;88.70;;;;;;6152720;23;20378;-82
2022/04/23 11:00:21;;;;;;;6.18;5.57;;;13.20;88.90;;;;;;6155530;23;20746;-80
2022/04/23 11:02:55;;;;;;;7.00;6.40;;;13.20;89.60;;;;;;6151660;23;20393;-78
2022/04/23 11:14:39;;;;;;;8.15;6.50;;;13.50;86.80;;;;;;6153474;23;20374;-79
2022/04/23 11:17:10;;;;;;;10.18;7.93;;;13.60;86.60;;;;;;6152113;23;20465;-80
2022/04/23 11:19:39;;;;;;;11.45;8.55;;;13.60;86.10;;;;;;6153399;23;20396;-81
2022/04/23 11:22:09;;;;;;;9.80;8.80;;;13.50;85.60;;;;;;6152538;23;20374;-80
2022/04/23 11:24:36;;;;;;;8.90;8.00;;;13.50;85.50;;;;;;6152336;23;20440;-82
2022/04/23 11:27:04;;;;;;;11.57;8.57;;;13.60;85.50;;;;;;6152486;23;20436;-81
2022/04/23 11:29:31;;;;;;;9.52;8.55;;;13.70;85.30;;;;;;6151946;23;20378;-80
2022/04/23 11:31:58;;;;;;;10.02;8.95;;;13.70;85.30;;;;;;6151592;23;20846;-81
2022/04/23 11:50:14;;;;;;;10.63;9.57;;;13.90;86.40;;;;;;6202817;22;871701;-82
2022/04/23 11:52:55;;;;;;;11.93;10.55;;;13.90;86.70;;;;;;6176348;23;20384;-80
2022/04/23 11:55:26;;;;;;;12.07;9.60;;;14.00;87.40;;;;;;6219776;23;20372;-81
2022/04/23 11:57:58;;;;;;;11.65;9.70;;;14.00;86.20;;;;;;6219750;23;20445;-80
2022/04/23 12:00:27;;;;;;;11.65;9.63;;;13.90;85.50;;;;;;6217860;23;20958;-80
2022/04/23 12:02:57;;;;;;;14.35;9.38;;;13.90;85.00;;;;;;6220115;23;20377;-81
2022/04/23 12:05:32;;;;;;;10.40;9.40;;;13.80;85.20;;;;;;6219262;23;20390;-82
2022/04/23 12:07:59;;;;;;;12.30;8.75;;;13.80;86.30;;;;;;6219534;23;20449;-81
2022/04/23 12:10:31;;;;;;;10.23;9.20;;;13.80;84.30;;;;;;6219237;23;20366;-82
2022/04/23 12:13:08;;;;;;;10.57;8.32;;;13.90;87.20;;;;;;6219272;23;20884;-82
2022/04/23 12:15:43;;;;;;;9.68;8.40;;;13.90;84.80;;;;;;6204804;23;20378;-82
2022/04/23 12:18:21;;;;;;;8.70;7.75;;;13.90;85.30;;;;;;6187494;23;20376;-81
2022/04/23 12:20:48;;;;;;;9.70;7.13;;;14.00;84.60;;;;;;6189280;23;20848;-82
2022/04/23 12:23:15;;;;;;;8.68;7.38;;;14.00;83.90;;;;;;6188202;23;20911;-82
2022/04/23 12:25:42;;;;;;;10.32;7.95;;;14.10;84.10;;;;;;6189864;23;20376;-82
2022/04/23 12:42:32;;;;;;;6.72;5.05;;;13.50;82.80;;;;;;6191883;23;20380;-83
2022/04/23 12:44:59;;;;;;;5.10;4.60;;;13.50;84.80;;;;;;6190999;23;20379;-82
2022/04/23 12:47:35;;;;;;;8.00;5.40;;;13.50;85.70;;;;;;6185861;23;20864;-82
2022/04/23 12:50:05;;;;;;;7.78;5.57;;;13.50;84.50;;;;;;6182013;23;20368;-82
2022/04/23 12:52:38;;;;;;;8.55;6.22;;;13.50;85.10;;;;;;6186016;23;20376;-80
2022/04/23 12:55:22;;;;;;;6.65;5.50;;;13.50;85.10;;;;;;6189625;23;20372;-81
2022/04/23 12:57:59;;;;;;;8.30;5.38;;;13.50;86.20;;;;;;6186151;23;20372;-82
2022/04/23 13:00:36;;;;;;;8.60;5.85;;;13.50;87.60;;;;;;6194030;23;20372;-82
2022/04/23 13:03:37;;;;;;;7.15;5.35;;;13.40;88.90;;;;;;6184870;23;20365;-79
2022/04/23 13:06:04;;;;;;;6.03;5.13;;;13.40;88.00;;;;;;6187392;23;20372;-83
2022/04/23 13:11:28;;;;;;;11.55;7.47;;;13.30;88.50;;;;;;6184321;23;20422;-80
2022/04/23 13:14:00;;;;;;;7.85;5.20;;;13.30;89.00;;;;;;6184752;23;20388;-81
2022/04/23 13:16:28;;;;;;;7.65;5.07;;;13.30;89.00;;;;;;6185439;23;20428;-80
2022/04/23 13:18:57;;;;;;;12.75;9.05;;;13.10;90.00;;;;;;6180997;23;20377;-81
2022/04/23 13:21:30;;;;;;;10.48;7.05;;;13.10;90.20;;;;;;6182993;23;20928;-81
2022/04/23 13:23:58;;;;;;;9.07;5.60;;;13.10;90.40;;;;;;6181081;23;20387;-81
2022/04/23 13:26:29;;;;;;;6.07;4.30;;;13.20;90.10;;;;;;6182737;23;20710;-82
2022/04/23 13:28:57;;;;;;;4.88;3.70;;;13.10;89.50;;;;;;6186770;23;20376;-82
2022/04/23 13:31:24;;;;;;;6.13;4.00;;;13.10;89.10;;;;;;6186115;23;20690;-80
2022/04/23 13:33:51;;;;;;;5.33;3.57;;;13.20;89.00;;;;;;6182419;23;20951;-83
2022/04/23 13:36:18;;;;;;;6.45;4.18;;;13.00;88.70;;;;;;6183940;23;20435;-82
2022/04/23 13:38:45;;;;;;;8.80;4.50;;;13.00;90.00;;;;;;6182680;23;20874;-82
2022/04/23 13:41:16;;;;;;;6.38;4.45;;;13.00;90.20;;;;;;6182735;23;20387;-82
2022/04/23 13:43:44;;;;;;;6.80;5.03;;;13.00;90.40;;;;;;6182607;23;20379;-80
2022/04/23 13:46:12;;;;;;;5.20;3.83;;;12.90;91.40;;;;;;6183761;23;20849;-82
2022/04/23 13:48:39;;;;;;;5.45;3.28;;;12.80;91.10;;;;;;6188755;23;20384;-80
2022/04/23 13:51:07;;;;;;;4.43;3.40;;;12.80;90.70;;;;;;6186058;23;20383;-80
2022/04/23 13:53:34;;;;;;;7.28;3.67;;;12.80;90.80;;;;;;6184176;23;20690;-80
2022/04/23 13:56:02;;;;;;;8.27;5.50;;;12.70;91.10;;;;;;6183963;23;20380;-82
2022/04/23 13:58:29;;;;;;;7.75;5.85;;;12.60;91.90;;;;;;6181370;23;20848;-81
2022/04/23 14:00:59;;;;;;;7.80;5.40;;;12.60;92.00;;;;;;6183134;23;20383;-80
2022/04/23 14:11:43;;;;;;;6.05;3.78;;;12.50;92.30;;;;;;6189388;23;20372;-80
2022/04/23 14:14:14;;;;;;;9.00;7.22;;;12.50;91.60;;;;;;6182353;23;20451;-81
2022/04/23 14:16:43;;;;;;;9.60;7.03;;;12.60;92.70;;;;;;6183161;23;20364;-82
2022/04/23 14:19:10;;;;;;;9.40;8.20;;;12.60;92.20;;;;;;6184599;23;20376;-83
2022/04/23 14:21:37;;;;;;;10.00;8.73;;;12.70;92.10;;;;;;6181433;23;20372;-83
2022/04/23 14:24:05;;;;;;;8.67;6.97;;;12.80;91.90;;;;;;6189835;23;20475;-82
2022/04/23 14:26:32;;;;;;;8.60;6.60;;;12.90;91.60;;;;;;6190330;23;20381;-81
2022/04/23 14:28:59;;;;;;;9.45;6.35;;;12.90;91.20;;;;;;6173637;23;20380;-83
2022/04/23 14:31:27;;;;;;;5.95;4.88;;;12.90;91.40;;;;;;6187384;23;20376;-80
2022/04/23 14:33:54;;;;;;;4.32;3.83;;;12.90;91.20;;;;;;6191558;23;20380;-84
2022/04/23 14:36:21;;;;;;;5.35;4.40;;;12.90;91.10;;;;;;6180221;23;20391;-82
2022/04/23 14:38:50;;;;;;;4.38;3.38;;;12.90;91.00;;;;;;6188014;23;20402;-82
2022/04/23 14:41:20;;;;;;;4.20;3.15;;;12.90;90.80;;;;;;6192976;23;20423;-83
2022/04/23 14:43:47;;;;;;;4.70;3.27;;;12.90;90.90;;;;;;6184510;23;20828;-81
2022/04/23 14:46:14;;;;;;;5.15;3.63;;;12.90;90.90;;;;;;6188378;23;20911;-80
2022/04/23 14:48:43;;;;;;;4.97;4.32;;;12.90;91.10;;;;;;6189924;23;20377;-82
2022/04/23 14:53:55;;;;;;;5.28;4.00;;;12.80;91.90;;;;;;6192172;23;20394;-82
2022/04/23 14:56:22;;;;;;;7.32;5.78;;;12.90;91.30;;;;;;6187185;23;20373;-82
2022/04/23 14:58:49;;;;;;;3.75;3.42;;;12.90;91.30;;;;;;6187340;23;20399;-82
2022/04/23 15:01:16;;;;;;;5.07;3.63;;;13.00;91.00;;;;;;6187825;23;20381;-81
2022/04/23 15:03:44;;;;;;;5.03;3.60;;;12.90;90.80;;;;;;6185086;23;20391;-80
2022/04/23 15:06:11;;;;;;;5.18;2.97;;;12.90;91.30;;;;;;6181215;23;20427;-82